createdAt,value
2019-05-15T00:00:56.005Z,97184.93
2019-05-15T00:03:28.722Z,97180.33
2019-05-15T00:05:58.690Z,97174.38
2019-05-15T00:08:30.116Z,97168.33
2019-05-15T00:11:00.420Z,97167.95
2019-05-15T00:13:30.686Z,97173.91
2019-05-15T00:16:00.985Z,97172.75
2019-05-15T00:18:31.495Z,97172.85
2019-05-15T00:21:02.998Z,97162.89
2019-05-15T00:23:33.325Z,97167.13
2019-05-15T00:26:03.780Z,97169.70
2019-05-15T00:28:34.125Z,97168.47
2019-05-15T00:31:04.377Z,97166.27
2019-05-15T00:33:35.121Z,97157.16
2019-05-15T00:36:05.402Z,97150.05
2019-05-15T00:38:35.724Z,97143.92
2019-05-15T00:41:05.992Z,97139.32
2019-05-15T00:43:38.484Z,97138.45
2019-05-15T00:46:09.192Z,97135.41
2019-05-15T00:48:40.633Z,97132.84
2019-05-15T00:51:11.068Z,97131.49
2019-05-15T00:53:41.391Z,97130.16
2019-05-15T00:56:11.609Z,97127.36
2019-05-15T00:58:41.864Z,97120.36
2019-05-15T01:01:12.146Z,97113.77
2019-05-15T01:03:42.372Z,97105.42
2019-05-15T01:06:12.690Z,97096.87
2019-05-15T01:08:43.007Z,97096.87
2019-05-15T01:11:13.330Z,97097.37
2019-05-15T01:13:43.596Z,97098.83
2019-05-15T01:16:13.807Z,97099.02
2019-05-15T01:18:44.319Z,97089.97
2019-05-15T01:21:14.582Z,97087.23
2019-05-15T01:23:44.941Z,97086.19
2019-05-15T01:26:15.273Z,97083.39
2019-05-15T01:28:45.586Z,97087.92
2019-05-15T01:31:15.810Z,97084.38
2019-05-15T01:33:48.080Z,97083.03
2019-05-15T01:36:19.265Z,97083.50
2019-05-15T01:38:49.794Z,97077.84
2019-05-15T01:41:20.009Z,97080.23
2019-05-15T01:43:50.231Z,97080.34
2019-05-15T01:46:20.406Z,97073.75
2019-05-15T01:48:50.897Z,97080.61
2019-05-15T01:51:21.162Z,97076.10
2019-05-15T01:53:51.412Z,97075.73
2019-05-15T01:56:21.871Z,97078.33
2019-05-15T01:58:52.234Z,97071.07
2019-05-15T02:01:22.449Z,97074.29
2019-05-15T02:03:52.807Z,97074.77
2019-05-15T02:06:23.097Z,97072.20
2019-05-15T02:08:53.316Z,97070.47
2019-05-15T02:11:23.626Z,97063.77
2019-05-15T02:13:54.056Z,97056.58
2019-05-15T02:16:24.345Z,97048.53
2019-05-15T02:18:54.712Z,97049.98
2019-05-15T02:21:24.925Z,97050.06
2019-05-15T02:23:58.639Z,97056.11
2019-05-15T02:26:28.414Z,97062.89
2019-05-15T02:28:58.678Z,97050.57
2019-05-15T02:31:30.134Z,97047.38
2019-05-15T02:34:00.784Z,97052.09
2019-05-15T02:36:31.166Z,97059.37
2019-05-15T02:39:01.587Z,97054.95
2019-05-15T02:41:33.027Z,97046.61
2019-05-15T02:44:03.320Z,97044.32
2019-05-15T02:46:33.652Z,97048.14
2019-05-15T02:49:03.807Z,97048.14
2019-05-15T02:51:34.114Z,97039.71
2019-05-15T02:54:04.406Z,97031.76
2019-05-15T02:56:34.768Z,97023.59
2019-05-15T02:59:05.055Z,97030.08
2019-05-15T03:01:35.349Z,97029.97
2019-05-15T03:04:05.531Z,97025.95
2019-05-15T03:06:38.883Z,97019.23
2019-05-15T03:09:09.564Z,97020.05
2019-05-15T03:11:41.133Z,97017.36
2019-05-15T03:14:11.433Z,97022.37
2019-05-15T03:16:41.693Z,97018.23
2019-05-15T03:19:11.981Z,97022.42
2019-05-15T03:21:42.297Z,97028.16
2019-05-15T03:24:12.495Z,97030.36
2019-05-15T03:26:42.686Z,97027.96
2019-05-15T03:29:12.964Z,97029.08
2019-05-15T03:31:58.898Z,97024.86
2019-05-15T03:34:23.137Z,97013.62
2019-05-15T03:36:52.724Z,97007.89
2019-05-15T03:39:19.391Z,97009.12
2019-05-15T03:41:49.879Z,97009.00
2019-05-15T03:44:20.405Z,97004.73
2019-05-15T03:46:50.700Z,97010.46
2019-05-15T03:49:20.946Z,97009.98
2019-05-15T03:51:51.246Z,97010.85
2019-05-15T03:54:21.483Z,97013.54
2019-05-15T03:56:51.845Z,97010.34
2019-05-15T03:59:22.138Z,97011.22
2019-05-15T04:01:52.561Z,97008.17
2019-05-15T04:04:22.922Z,97009.00
2019-05-15T04:06:53.353Z,97013.54
2019-05-15T04:09:23.573Z,97012.20
2019-05-15T04:11:53.905Z,97020.61
2019-05-15T04:14:25.134Z,97011.69
2019-05-15T04:16:55.426Z,97017.45
2019-05-15T04:19:25.792Z,97011.09
2019-05-15T04:21:59.742Z,97009.76
2019-05-15T04:24:30.084Z,97007.36
2019-05-15T04:27:00.154Z,97001.12
2019-05-15T04:29:30.504Z,96999.78
2019-05-15T04:32:05.517Z,96992.12
2019-05-15T04:34:33.057Z,96992.48
2019-05-15T04:37:03.389Z,96990.19
2019-05-15T04:39:33.707Z,96990.55
2019-05-15T04:42:04.038Z,96991.42
2019-05-15T04:44:35.039Z,96986.44
2019-05-15T04:47:05.666Z,96988.26
2019-05-15T04:49:39.180Z,96990.94
2019-05-15T04:52:10.154Z,96985.94
2019-05-15T04:54:41.111Z,96989.48
2019-05-15T04:57:11.327Z,96989.87
2019-05-15T04:59:41.640Z,96984.00
2019-05-15T05:02:17.445Z,96982.19
2019-05-15T05:04:43.873Z,96984.39
2019-05-15T05:07:14.129Z,96984.39
2019-05-15T05:09:44.620Z,96980.73
2019-05-15T05:12:14.965Z,96980.65
2019-05-15T05:14:48.423Z,96987.36
2019-05-15T05:17:19.534Z,96990.05
2019-05-15T05:19:51.464Z,96992.22
2019-05-15T05:22:21.929Z,96997.59
2019-05-15T05:24:52.193Z,96992.13
2019-05-15T05:27:22.689Z,96987.60
2019-05-15T05:29:53.110Z,96987.12
2019-05-15T05:32:33.864Z,96982.63
2019-05-15T05:34:55.943Z,96986.66
2019-05-15T05:37:27.951Z,96986.17
2019-05-15T05:39:59.382Z,96980.81
2019-05-15T05:42:29.625Z,96987.99
2019-05-15T05:45:00.149Z,96994.59
2019-05-15T05:47:30.469Z,96999.01
2019-05-15T05:50:00.757Z,96999.48
2019-05-15T05:52:34.190Z,97003.03
2019-05-15T05:55:08.506Z,96999.48
2019-05-15T05:57:38.562Z,97001.70
2019-05-15T06:00:09.587Z,97001.30
2019-05-15T06:02:47.566Z,97003.88
2019-05-15T06:05:12.206Z,96999.37
2019-05-15T06:07:42.511Z,97001.10
2019-05-15T06:10:12.757Z,97002.92
2019-05-15T06:12:43.125Z,96998.42
2019-05-15T06:15:13.647Z,96999.25
2019-05-15T06:17:43.886Z,97001.10
2019-05-15T06:20:14.308Z,97005.02
2019-05-15T06:22:44.889Z,97001.34
2019-05-15T06:25:15.211Z,97003.08
2019-05-15T06:27:48.036Z,97000.88
2019-05-15T06:30:21.934Z,96995.03
2019-05-15T06:33:04.623Z,96999.41
2019-05-15T06:35:21.696Z,96997.59
2019-05-15T06:37:51.942Z,96993.96
2019-05-15T06:40:23.710Z,96998.83
2019-05-15T06:42:54.164Z,97000.16
2019-05-15T06:45:28.341Z,96992.11
2019-05-15T06:48:01.441Z,96990.30
2019-05-15T06:50:38.373Z,96987.14
2019-05-15T06:53:10.778Z,96985.40
2019-05-15T06:55:40.929Z,96985.80
2019-05-15T06:58:11.164Z,96982.63
2019-05-15T07:00:41.436Z,96990.69
2019-05-15T07:03:21.556Z,96988.00
2019-05-15T07:05:43.662Z,96981.29
2019-05-15T07:08:13.943Z,96994.20
2019-05-15T07:10:44.380Z,96991.52
2019-05-15T07:13:14.736Z,96987.49
2019-05-15T07:15:46.016Z,96991.91
2019-05-15T07:18:16.257Z,96990.57
2019-05-15T07:20:48.788Z,96992.78
2019-05-15T07:23:19.297Z,96990.93
2019-05-15T07:25:50.305Z,96993.61
2019-05-15T07:28:22.405Z,96991.80
2019-05-15T07:30:52.629Z,96988.64
2019-05-15T07:33:35.729Z,96984.61
2019-05-15T07:35:54.885Z,96989.98
2019-05-15T07:38:25.305Z,96985.95
2019-05-15T07:41:00.130Z,96988.16
2019-05-15T07:43:28.084Z,96991.20
2019-05-15T07:45:59.120Z,96983.27
2019-05-15T07:48:30.529Z,96988.05
2019-05-15T07:51:00.756Z,96977.78
2019-05-15T07:53:31.090Z,96985.36
2019-05-15T07:56:01.873Z,96977.30
2019-05-15T07:58:33.470Z,96979.88
2019-05-15T08:01:05.519Z,96976.31
2019-05-15T08:03:39.590Z,96975.48
2019-05-15T08:06:08.790Z,96971.94
2019-05-15T08:08:39.740Z,96976.83
2019-05-15T08:11:20.156Z,96974.14
2019-05-15T08:13:43.355Z,96969.25
2019-05-15T08:16:13.670Z,96967.91
2019-05-15T08:18:44.136Z,96971.45
2019-05-15T08:21:14.425Z,96962.06
2019-05-15T08:23:44.743Z,96956.69
2019-05-15T08:26:15.099Z,96961.55
2019-05-15T08:28:45.377Z,96959.84
2019-05-15T08:31:18.157Z,96958.87
2019-05-15T08:33:48.305Z,96954.36
2019-05-15T08:36:18.763Z,96957.91
2019-05-15T08:38:48.982Z,96957.91
2019-05-15T08:41:19.311Z,96952.16
2019-05-15T08:43:49.625Z,96952.16
2019-05-15T08:46:19.912Z,96957.91
2019-05-15T08:48:50.276Z,96953.77
2019-05-15T08:51:20.779Z,96957.32
2019-05-15T08:53:51.331Z,96950.13
2019-05-15T08:56:21.617Z,96953.30
2019-05-15T08:58:51.878Z,96951.09
2019-05-15T09:01:22.200Z,96955.00
2019-05-15T09:03:52.523Z,96958.19
2019-05-15T09:06:23.247Z,96954.52
2019-05-15T09:08:53.982Z,96950.13
2019-05-15T09:11:24.310Z,96950.13
2019-05-15T09:13:59.312Z,96947.45
2019-05-15T09:16:28.109Z,96953.17
2019-05-15T09:18:59.167Z,96937.54
2019-05-15T09:21:29.667Z,96941.48
2019-05-15T09:23:59.978Z,96937.06
2019-05-15T09:26:30.337Z,96935.36
2019-05-15T09:29:00.644Z,96930.83
2019-05-15T09:31:31.198Z,96930.83
2019-05-15T09:34:01.545Z,96929.48
2019-05-15T09:36:31.898Z,96928.66
2019-05-15T09:39:03.041Z,96930.83
2019-05-15T09:41:35.327Z,96924.11
2019-05-15T09:44:08.021Z,96920.09
2019-05-15T09:46:38.478Z,96922.41
2019-05-15T09:49:09.011Z,96919.25
2019-05-15T09:51:39.463Z,96918.86
2019-05-15T09:54:09.715Z,96919.19
2019-05-15T09:56:39.942Z,96910.53
2019-05-15T09:59:10.280Z,96912.15
2019-05-15T10:01:40.785Z,96909.46
2019-05-15T10:04:11.135Z,96905.31
2019-05-15T10:06:43.167Z,96900.69
2019-05-15T10:09:13.733Z,96896.19
2019-05-15T10:11:44.055Z,96886.59
2019-05-15T10:14:14.383Z,96889.36
2019-05-15T10:16:44.806Z,96892.78
2019-05-15T10:19:15.104Z,96887.33
2019-05-15T10:21:45.458Z,96884.44
2019-05-15T10:24:18.078Z,96883.96
2019-05-15T10:26:49.083Z,96886.77
2019-05-15T10:29:19.504Z,96881.75
2019-05-15T10:31:50.478Z,96883.22
2019-05-15T10:34:20.726Z,96881.75
2019-05-15T10:36:51.100Z,96878.59
2019-05-15T10:39:22.258Z,96881.63
2019-05-15T10:41:52.745Z,96869.55
2019-05-15T10:44:23.004Z,96876.86
2019-05-15T10:46:53.330Z,96876.38
2019-05-15T10:49:25.601Z,96872.74
2019-05-15T10:51:56.061Z,96869.07
2019-05-15T10:54:28.642Z,96869.55
2019-05-15T10:57:00.744Z,96864.30
2019-05-15T10:59:30.357Z,96862.83
2019-05-15T11:02:00.619Z,96864.09
2019-05-15T11:04:31.746Z,96853.82
2019-05-15T11:07:02.033Z,96859.07
2019-05-15T11:09:32.361Z,96856.39
2019-05-15T11:12:02.621Z,96861.76
2019-05-15T11:14:33.358Z,96856.78
2019-05-15T11:17:03.926Z,96860.30
2019-05-15T11:19:36.386Z,96856.27
2019-05-15T11:22:09.098Z,96858.00
2019-05-15T11:24:39.383Z,96858.47
2019-05-15T11:27:10.099Z,96859.81
2019-05-15T11:29:40.677Z,96865.66
2019-05-15T11:32:11.119Z,96858.12
2019-05-15T11:34:41.471Z,96859.46
2019-05-15T11:37:11.910Z,96862.98
2019-05-15T11:39:46.040Z,96864.83
2019-05-15T11:42:14.388Z,96868.86
2019-05-15T11:44:44.822Z,96867.52
2019-05-15T11:47:15.246Z,96865.78
2019-05-15T11:49:48.660Z,96862.14
2019-05-15T11:52:20.492Z,96866.66
2019-05-15T11:54:51.017Z,96868.95
2019-05-15T11:57:36.964Z,96868.80
2019-05-15T11:59:55.285Z,96861.52
2019-05-15T12:02:25.461Z,96863.45
2019-05-15T12:04:58.258Z,96872.73
2019-05-15T12:07:29.048Z,96865.55
2019-05-15T12:09:59.629Z,96865.42
2019-05-15T12:12:32.065Z,96865.31
2019-05-15T12:15:01.894Z,96866.30
2019-05-15T12:17:34.143Z,96870.32
2019-05-15T12:20:06.605Z,96868.98
2019-05-15T12:22:38.924Z,96869.81
2019-05-15T12:25:10.066Z,96867.52
2019-05-15T12:27:40.714Z,96873.24
2019-05-15T12:30:11.562Z,96873.36
2019-05-15T12:32:42.730Z,96874.23
2019-05-15T12:35:14.537Z,96872.02
2019-05-15T12:37:45.637Z,96868.47
2019-05-15T13:00:31.872Z,96880.20
2019-05-15T13:03:02.190Z,96880.80
2019-05-15T13:05:32.705Z,96871.88
2019-05-15T13:08:02.927Z,96880.80
2019-05-15T13:10:33.376Z,96883.48
2019-05-15T13:13:05.513Z,96877.24
2019-05-15T13:15:35.694Z,96881.74
2019-05-15T13:18:05.901Z,96877.84
2019-05-15T13:20:38.178Z,96880.05
2019-05-15T13:23:08.201Z,96880.52
2019-05-15T13:25:39.312Z,96881.39
2019-05-15T13:28:09.882Z,96878.58
2019-05-15T13:30:41.800Z,96877.24
2019-05-15T13:33:12.053Z,96882.61
2019-05-15T13:35:42.312Z,96884.43
2019-05-15T13:38:12.466Z,96883.95
2019-05-15T13:40:42.827Z,96886.16
2019-05-15T13:43:13.945Z,96882.25
2019-05-15T13:45:44.102Z,96895.29
2019-05-15T13:48:16.667Z,96895.17
2019-05-15T13:50:48.284Z,96896.63
2019-05-15T13:53:18.522Z,96895.77
2019-05-15T13:55:48.677Z,96897.70
2019-05-15T13:58:19.093Z,96903.34
2019-05-15T14:00:49.421Z,96899.44
2019-05-15T14:03:19.646Z,96901.14
2019-05-15T14:05:50.032Z,96902.88
2019-05-15T14:08:20.203Z,96903.82
2019-05-15T14:10:50.350Z,96903.46
2019-05-15T14:13:20.622Z,96906.15
2019-05-15T14:15:50.773Z,96909.31
2019-05-15T14:18:21.005Z,96907.97
2019-05-15T14:20:51.161Z,96909.31
2019-05-15T14:23:21.320Z,96904.06
2019-05-15T14:25:51.524Z,96912.86
2019-05-15T14:28:21.718Z,96908.83
2019-05-15T14:30:52.101Z,96903.94
2019-05-15T14:33:24.418Z,96906.15
2019-05-15T14:35:54.588Z,96908.44
2019-05-15T14:38:24.854Z,96911.52
2019-05-15T14:40:55.020Z,96918.23
2019-05-15T14:43:25.175Z,96918.23
2019-05-15T14:45:55.398Z,96916.50
2019-05-15T14:48:27.961Z,96917.01
2019-05-15T14:50:58.429Z,96923.21
2019-05-15T14:53:29.363Z,96921.87
2019-05-15T14:56:00.551Z,96931.77
2019-05-15T14:58:32.963Z,96939.83
2019-05-15T15:01:04.466Z,96940.66
2019-05-15T15:03:35.024Z,96946.54
2019-05-15T15:06:05.255Z,96944.45
2019-05-15T15:08:35.469Z,96944.69
2019-05-15T15:11:05.681Z,96942.00
2019-05-15T15:13:38.029Z,96944.48
2019-05-15T15:16:08.396Z,96944.84
2019-05-15T15:18:38.844Z,96945.72
2019-05-15T15:21:10.014Z,96944.25
2019-05-15T15:23:40.392Z,96953.66
2019-05-15T15:26:10.846Z,96954.16
2019-05-15T15:28:42.727Z,96963.56
2019-05-15T15:31:12.846Z,96959.73
2019-05-15T15:33:43.165Z,96955.34
2019-05-15T15:36:13.498Z,96954.36
2019-05-15T15:38:44.298Z,96953.77
2019-05-15T15:41:14.559Z,96959.53
2019-05-15T15:43:48.510Z,96959.89
2019-05-15T15:46:19.463Z,96957.68
2019-05-15T15:48:49.811Z,96962.97
2019-05-15T15:51:20.072Z,96960.64
2019-05-15T15:53:50.303Z,96959.30
2019-05-15T15:56:20.528Z,96962.73
2019-05-15T15:58:50.765Z,96958.70
2019-05-15T16:01:23.911Z,96959.09
2019-05-15T16:03:52.878Z,96966.56
2019-05-15T16:06:23.472Z,96961.66
2019-05-15T16:08:55.838Z,96960.32
2019-05-15T16:11:27.832Z,96965.22
2019-05-15T16:13:58.726Z,96966.47
2019-05-15T16:16:29.431Z,96959.84
2019-05-15T16:18:59.693Z,96965.48
2019-05-15T16:21:29.881Z,96962.33
2019-05-15T16:24:13.942Z,96968.56
2019-05-15T16:26:32.789Z,96971.25
2019-05-15T16:29:02.973Z,96965.28
2019-05-15T16:31:33.220Z,96975.55
2019-05-15T16:34:04.753Z,96966.98
2019-05-15T16:36:34.869Z,96966.90
2019-05-15T16:39:10.887Z,96968.60
2019-05-15T16:41:38.428Z,96964.96
2019-05-15T16:44:09.007Z,96971.56
2019-05-15T16:46:39.519Z,96968.39
2019-05-15T16:49:09.807Z,96967.89
2019-05-15T16:51:40.173Z,96971.44
2019-05-15T16:54:10.484Z,96972.66
2019-05-15T16:56:40.655Z,96971.33
2019-05-15T16:59:10.848Z,96977.09
2019-05-15T17:01:41.323Z,96972.19
2019-05-15T17:04:11.527Z,96975.63
2019-05-15T17:06:41.779Z,96975.15
2019-05-15T17:09:21.251Z,96979.17
2019-05-15T17:11:43.906Z,96978.70
2019-05-15T17:14:14.074Z,96977.24
2019-05-15T17:16:45.088Z,96981.75
2019-05-15T17:19:15.287Z,96979.92
2019-05-15T17:21:48.010Z,96990.20
2019-05-15T17:24:17.472Z,96985.66
2019-05-15T17:26:48.476Z,96986.05
2019-05-15T17:29:19.786Z,96989.21
2019-05-15T17:31:49.969Z,96991.42
2019-05-15T17:34:21.153Z,96992.77
2019-05-15T17:36:51.305Z,96995.45
2019-05-15T17:39:33.775Z,96996.80
2019-05-15T17:41:53.978Z,96993.98
2019-05-15T17:44:24.523Z,96996.67
2019-05-15T17:46:54.777Z,96996.56
2019-05-15T17:49:24.989Z,96999.63
2019-05-15T17:51:55.235Z,97000.86
2019-05-15T17:54:28.608Z,97002.20
2019-05-15T17:56:59.554Z,97001.25
2019-05-15T17:59:29.857Z,97002.95
2019-05-15T18:02:00.530Z,97002.48
2019-05-15T18:04:30.780Z,97002.36
2019-05-15T18:07:03.984Z,97006.27
2019-05-15T18:09:47.571Z,97008.59
2019-05-15T18:12:11.190Z,97011.17
2019-05-15T18:14:38.538Z,97011.17
2019-05-15T18:17:12.114Z,97016.06
2019-05-15T18:19:42.380Z,97014.24
2019-05-15T18:22:12.815Z,97013.37
2019-05-15T18:24:43.065Z,97021.44
2019-05-15T18:27:13.344Z,97017.88
2019-05-15T18:29:45.234Z,97019.62
2019-05-15T18:32:15.553Z,97019.98
2019-05-15T18:34:45.776Z,97021.32
2019-05-15T18:37:18.987Z,97024.88
2019-05-15T18:40:02.149Z,97027.09
2019-05-15T18:42:21.196Z,97017.68
2019-05-15T18:44:51.502Z,97025.23
2019-05-15T18:47:21.749Z,97025.23
2019-05-15T18:50:04.162Z,97022.94
2019-05-15T18:52:24.195Z,97019.77
2019-05-15T18:54:54.902Z,97019.77
2019-05-15T18:57:26.822Z,97025.98
2019-05-15T18:59:58.256Z,97025.14
2019-05-15T19:02:28.783Z,97025.03
2019-05-15T19:04:59.517Z,97025.89
2019-05-15T19:07:29.879Z,97030.77
2019-05-15T19:10:00.132Z,97025.89
2019-05-15T19:12:33.539Z,97031.27
2019-05-15T19:15:04.360Z,97030.28
2019-05-15T19:17:38.575Z,97030.77
2019-05-15T19:20:08.929Z,97027.59
2019-05-15T19:22:41.049Z,97023.56
2019-05-15T19:25:11.450Z,97021.27
2019-05-15T19:27:41.737Z,97023.45
2019-05-15T19:30:12.073Z,97026.52
2019-05-15T19:32:42.478Z,97027.48
2019-05-15T19:35:12.930Z,97030.16
2019-05-15T19:37:44.356Z,97030.28
2019-05-15T19:40:18.758Z,97028.08
2019-05-15T19:42:48.894Z,97026.25
2019-05-15T19:45:20.857Z,97038.73
2019-05-15T19:47:51.381Z,97032.50
2019-05-15T19:50:21.974Z,97031.27
2019-05-15T19:52:52.277Z,97039.33
2019-05-15T19:55:24.367Z,97032.22
2019-05-15T19:57:55.770Z,97033.56
2019-05-15T20:00:28.260Z,97033.20
2019-05-15T20:02:59.249Z,97034.44
2019-05-15T20:05:33.780Z,97038.47
2019-05-15T20:08:04.244Z,97027.84
2019-05-15T20:10:34.609Z,97024.75
2019-05-15T20:13:04.873Z,97020.61
2019-05-15T20:15:37.936Z,97025.03
2019-05-15T20:18:08.781Z,97024.64
2019-05-15T20:20:39.135Z,97023.30
2019-05-15T20:23:10.019Z,97021.86
2019-05-15T20:25:40.435Z,97020.87
2019-05-15T20:28:10.870Z,97022.61
2019-05-15T20:30:41.531Z,97016.73
2019-05-15T20:33:12.075Z,97015.14
2019-05-15T20:35:42.739Z,97016.09
2019-05-15T20:38:13.206Z,97009.86
2019-05-15T20:40:43.570Z,97019.66
2019-05-15T20:43:18.559Z,97013.41
2019-05-15T20:45:50.702Z,97009.02
2019-05-15T20:48:21.329Z,97013.89
2019-05-15T20:50:51.708Z,97016.70
2019-05-15T20:53:21.998Z,97013.89
2019-05-15T20:55:52.224Z,97009.11
2019-05-15T20:58:22.517Z,97008.75
2019-05-15T21:00:52.978Z,97009.62
2019-05-15T21:03:23.745Z,97002.51
2019-05-15T21:05:53.900Z,97008.88
2019-05-15T21:08:24.066Z,97006.66
2019-05-15T21:10:54.270Z,97016.42
2019-05-15T21:13:24.544Z,97024.60
2019-05-15T21:15:54.903Z,97024.12
2019-05-15T21:18:25.365Z,97024.72
2019-05-15T21:20:55.581Z,97030.09
2019-05-15T21:23:25.793Z,97031.44
2019-05-15T21:25:55.978Z,97024.60
2019-05-15T21:28:27.784Z,97030.09
2019-05-15T21:30:58.212Z,97031.76
2019-05-15T21:33:28.421Z,97028.59
2019-05-15T21:35:58.588Z,97033.11
2019-05-15T21:38:30.819Z,97031.48
2019-05-15T21:41:01.042Z,97028.64
2019-05-15T21:43:31.223Z,97028.48
2019-05-15T21:46:01.374Z,97029.20
2019-05-15T21:48:31.863Z,97031.29
2019-05-15T21:51:02.090Z,97030.54
2019-05-15T21:53:32.279Z,97036.39
2019-05-15T21:56:02.565Z,97031.13
2019-05-15T21:58:32.708Z,97034.80
2019-05-15T22:01:03.128Z,97035.75
2019-05-15T22:03:33.842Z,97041.60
2019-05-15T22:06:04.163Z,97036.73
2019-05-15T22:08:34.359Z,97040.77
2019-05-15T22:11:04.581Z,97035.00
2019-05-15T22:13:34.854Z,97037.80
2019-05-15T22:16:05.089Z,97036.94
2019-05-15T22:18:35.412Z,97034.37
2019-05-15T22:21:07.791Z,97029.86
2019-05-15T22:23:38.467Z,97029.47
2019-05-15T22:26:08.669Z,97028.25
2019-05-15T22:28:38.888Z,97023.23
2019-05-15T22:31:09.144Z,97028.61
2019-05-15T22:33:40.318Z,97025.13
2019-05-15T22:36:10.670Z,97027.38
2019-05-15T22:38:41.056Z,97024.38
2019-05-15T22:41:11.201Z,97020.00
2019-05-15T22:43:41.576Z,97015.09
2019-05-15T22:49:58.920Z,97016.17
2019-05-15T22:52:28.625Z,97011.63
2019-05-15T22:54:58.751Z,97007.95
2019-05-15T22:57:28.878Z,97005.27
2019-05-15T22:59:59.027Z,97014.30
2019-05-15T23:02:29.180Z,97009.13
2019-05-15T23:05:00.443Z,97005.11
2019-05-15T23:07:31.641Z,97007.31
2019-05-15T23:10:01.785Z,96998.39
2019-05-15T23:12:31.977Z,97002.53
2019-05-15T23:15:03.196Z,97006.45
2019-05-15T23:17:33.366Z,97003.88
2019-05-15T23:20:03.582Z,97000.33
2019-05-15T23:22:33.814Z,97002.26
2019-05-15T23:25:03.962Z,96992.39
2019-05-15T23:27:34.314Z,96996.53
2019-05-15T23:30:04.588Z,96997.87
2019-05-15T23:32:34.720Z,96999.58
2019-05-15T23:35:05.037Z,97001.51
2019-05-15T23:37:35.197Z,97002.02
2019-05-15T23:40:05.887Z,97001.15
2019-05-15T23:42:38.641Z,97000.67
2019-05-15T23:45:09.389Z,97000.39
2019-05-15T23:47:39.691Z,96994.63
2019-05-15T23:50:09.861Z,96989.77
2019-05-15T23:52:40.331Z,96990.72
2019-05-15T23:55:10.458Z,96986.81
2019-05-15T23:57:40.615Z,96989.86
